Galway Airport

METAR EINN TAF EINN
13 °C
°C
-
°C
12m
Alter
17:12:09
LT
16:12
UTC
0 ft

1.000

2.000

3.000

4.000

5.000

FEW 2.400
SCT 5.000
VFR
<?= Yii::t('app', 'Wind direction') ?> <?= Yii::t('app', 'of'); ?>
250°
19:58
Sonne unter
63%
Luftfeuchtigkeit
Windscherung
Geschlossen/Schnee
RWY-Sichtweite
RWY Zustand
Vert. Sichtweite
Min. Sichtbarkeit
CAVOK
Trend
Korrektur
Besonderer Bericht
1017 hPa
QNH
METAR EINN 261600Z 25008KT 9999 FEW024 SCT050 13/06 Q1017 NOSIG
Vereinzelte Wolken
1 kt
1 kt
17:00
IFR
9 kt
18:00
IFR
9 kt
19:00
IFR
9 kt
20:00
IFR
9 kt
21:00
MVFR
3 kt
22:00
MVFR
3 kt
23:00
MVFR
3 kt
10 km+
Sichtweite
Keine
Wolkendecke
8 kt
Wind
metar-taf.com/EICM

Metar-Taf.com

Visueller Decoder

Wir und Dritte verfolgen dein Internetverhalten auf unserer Website mit Cookies. Wenn du fortfährst, gehen wir davon aus, dass du mit unserer Cookie-Richtlinie einverstanden bist.